This is the latest recevied weather packets stored in our database for station/object GW1549. If no packets are shown the sender has not sent any weather packets the latest 10 day(s).
| Time | Temp. | Humidity | Pressure | Rain* | Wind** | Luminosity | Snow |
|---|---|---|---|---|---|---|---|
| 1777497889 | 16.11° C | 90% | 1003.7 hPa | 4.57 mm | - | - | - |
| 1777492106 | 17.78° C | 89% | 1002 hPa | 3.81 mm | - | - | - |
| 1777491380 | 17.22° C | 93% | 1002.3 hPa | 3.81 mm | - | - | - |
| 1777485267 | 16.67° C | 94% | 1002.7 hPa | 2.79 mm | - | - | - |
| 1777481669 | 19.44° C | 85% | 1003 hPa | 0.25 mm | - | - | - |
| 1777480578 | 18.89° C | 84% | 1003.3 hPa | 0.25 mm | - | - | - |
| 1777480229 | 18.89° C | 84% | 1003.3 hPa | 0.25 mm | - | - | - |
| 1777477711 | 20° C | 82% | 1003.7 hPa | 0.25 mm | - | - | - |
| 1777476262 | 20° C | 81% | 1004 hPa | 0.25 mm | - | - | - |
| 1777475927 | 19.44° C | 82% | 1004 hPa | 0.25 mm | - | - | - |
| 1777474460 | 19.44° C | 81% | 1004 hPa | 0.25 mm | - | - | - |
| 1777469810 | 16.67° C | 95% | 1004.7 hPa | 0.25 mm | - | - | - |
| 1777469074 | 16.67° C | 96% | 1005 hPa | 0.25 mm | - | - | - |
| 1777467288 | 16.67° C | 97% | 1005 hPa | 0.25 mm | - | - | - |
| 1777466905 | 16.67° C | 97% | 1005 hPa | 0.25 mm | - | - | - |
| 1777465467 | 16.67° C | 99% | 1005 hPa | 0.25 mm | - | - | - |
| 1777464765 | 16.67° C | 99% | 1005 hPa | 0.25 mm | - | - | - |
| 1777464394 | 16.67° C | 99% | 1005 hPa | 0.25 mm | - | - | - |
| 1777462581 | 16.67° C | 99% | 1005 hPa | 0.25 mm | - | - | - |
| 1777453241 | 16.67° C | 96% | 1004.4 hPa | 0.25 mm | - | - | - |
| 1777452889 | 16.67° C | 96% | 1004.4 hPa | 0.25 mm | - | - | - |
| 1777452153 | 16.67° C | 96% | 1004.7 hPa | 0.25 mm | - | - | - |
| 1777448568 | 17.22° C | 91% | 1005 hPa | 0 mm | - | - | - |
| 1777448179 | 17.22° C | 92% | 1005.4 hPa | 0 mm | - | - | - |
| 1777445669 | 17.22° C | 91% | 1005.7 hPa | 0 mm | - | - | - |
* Rain since midnight (hover to see other rain measurements)
** Current wind speed in m/s (hover to see current wind gust speed)